Aqua, PA

6:34 PM EDT on June 02, 2015 (GMT -0400)
Chambersburg | | Change Station
CLOSE
Current Station
Personal Weather Station
Location: Chambersburg, PA
Elevation: 714 ft
Nearby Weather Stations

Elev 714 ft 39.96 °N, 77.66 °W | Updated 12 seconds ago

Overcast
Overcast
59.2 °F
Feels Like 59.2 °F
N
9.2
Wind Variable Wind from ENE
Gusts 12.1 mph

Today
High -- | Low -- °F
--% Chance of Precip.
Yesterday
High -- | Low -- °F
Precip. -- in
5:43 AM 8:33 PM
Full, 100% visible
Pressure 30.14 in
Visibility 10.0 miles
Clouds Overcast 1800 ft
Dew Point 57 °F
Humidity 93%
Rainfall 0.25 in
Snow Depth Not available.
UV 1 out of 12
Pollen .80 out of 12
Air Quality Not available.
Flu Activity Sporadic
METAR KHGR 022153Z 02008KT 10SM OVC018 17/13 A3011 RMK AO2 SLP204 T01670128

More Conditions Fewer Conditions

Pressure 30.14 in
Visibility 10.0 miles
Clouds Overcast 1800 ft
Dew Point 57 °F
Humidity 93%
Rainfall 0.25 in
Snow Depth Not available.
UV 1 out of 12
Pollen .80 out of 12
Air Quality Not available.
Flu Activity Sporadic
METAR KHGR 022153Z 02008KT 10SM OVC018 17/13 A3011 RMK AO2 SLP204 T01670128

More Conditions Fewer Conditions

10-Day Weather Forecast

×

Almanac

Astronomy

Jun. 02, 2015 Rise Set
Actual Time
Civil Twilight
Nautical Twilight
Astronomical Twilight
Moon
Length of Visible Light
Length of Day
Tomorrow will be .
, % of the Moon is Illuminated

Today's Extremes

State Highs State Lows

Community

WunderPhotos

Upload Photos

1,826,049 photos uploaded!

WunderBlogs® & News

Nearby

Air Quality

  Air Quality AQ Index Pollutant
Not available.

Snow Depth

Station Depth Elevation

Earthquake Activity

City Distance Mag. Time & Date
Minimum magnitude displayed is 2.5.

Coastal Water Temperatures

Place Temperature

Stations

Nearby Weather Stations

Station Location Temp. Windchill Dew Point Humidity Wind Precip. Elev Updated Type